Time;durP1;ratioP1;P1;durP2;ratioP2;P2;SDS_P1;SDS_P2;PMS_P1;PMS_P2;Temp;Humidity;BMP_temperature;BMP_pressure;BME280_temperature;BME280_humidity;BME280_pressure;Samples;Min_cycle;Max_cycle;Signal;HPM_P1;HPM_P2
2022/11/15 00:01:36;;;;;;;32.80;23.23;;;;;;;6.63;100.00;100918.31;5098259;28;20040;-72
2022/11/15 00:04:03;;;;;;;31.20;22.85;;;;;;;6.59;100.00;100909.66;5099691;28;20031;-73
2022/11/15 00:06:28;;;;;;;35.63;23.45;;;;;;;6.60;100.00;100921.16;5102889;28;20028;-73
2022/11/15 00:08:54;;;;;;;33.20;23.75;;;;;;;6.56;100.00;100908.97;5097066;28;20172;-73
2022/11/15 00:11:19;;;;;;;39.67;26.02;;;;;;;6.60;100.00;100911.38;5099301;28;20047;-73
2022/11/15 00:13:44;;;;;;;38.15;25.40;;;;;;;6.59;100.00;100906.13;5097561;28;20100;-73
2022/11/15 00:16:10;;;;;;;35.50;23.20;;;;;;;6.58;100.00;100902.59;5099494;28;20042;-73
2022/11/15 00:18:36;;;;;;;36.25;24.48;;;;;;;6.59;100.00;100907.00;5103350;28;20077;-73
2022/11/15 00:21:05;;;;;;;35.60;24.42;;;;;;;6.56;100.00;100891.19;5100407;27;20099;-73
2022/11/15 00:23:31;;;;;;;35.58;24.58;;;;;;;6.56;100.00;100899.19;5097586;27;20036;-73
2022/11/15 00:25:57;;;;;;;39.95;25.58;;;;;;;6.57;100.00;100895.56;5109375;27;20027;-73
2022/11/15 00:28:23;;;;;;;39.15;26.08;;;;;;;6.57;100.00;100897.38;5095831;28;20019;-72
2022/11/15 00:30:49;;;;;;;40.38;26.85;;;;;;;6.58;100.00;100885.78;5102122;27;20073;-72
2022/11/15 00:33:14;;;;;;;42.92;25.33;;;;;;;6.58;100.00;100888.44;5102391;28;20028;-71
2022/11/15 00:35:40;;;;;;;36.65;24.67;;;;;;;6.62;100.00;100890.78;5100964;28;20092;-72
2022/11/15 00:38:05;;;;;;;36.67;25.73;;;;;;;6.59;100.00;100891.00;5102601;28;20478;-71
2022/11/15 00:40:30;;;;;;;38.05;26.40;;;;;;;6.61;100.00;100888.25;5096700;28;20069;-71
2022/11/15 00:42:56;;;;;;;43.05;26.10;;;;;;;6.55;100.00;100876.13;5101506;28;20024;-72
2022/11/15 00:45:22;;;;;;;39.42;24.52;;;;;;;6.50;100.00;100867.59;5096007;28;20076;-72
2022/11/15 00:47:47;;;;;;;41.58;25.08;;;;;;;6.30;100.00;100836.00;5098170;28;20119;-67
2022/11/15 00:50:13;;;;;;;37.42;25.20;;;;;;;6.57;100.00;100879.59;5097719;28;20515;-66
2022/11/15 00:52:39;;;;;;;37.33;25.05;;;;;;;6.55;100.00;100867.31;5099662;28;20028;-66
2022/11/15 00:55:04;;;;;;;37.40;25.58;;;;;;;6.49;100.00;100852.53;5099658;28;20094;-66
2022/11/15 00:57:30;;;;;;;42.13;26.90;;;;;;;6.57;100.00;100860.06;5103439;28;20165;-67
2022/11/15 00:59:55;;;;;;;36.13;23.90;;;;;;;6.59;100.00;100860.84;5102163;28;20024;-66
2022/11/15 01:02:21;;;;;;;34.30;23.92;;;;;;;6.59;100.00;100861.69;5101596;28;20112;-66
2022/11/15 01:04:47;;;;;;;32.40;22.10;;;;;;;6.60;100.00;100860.75;5101103;28;20030;-65
2022/11/15 01:07:13;;;;;;;29.95;21.98;;;;;;;6.57;100.00;100852.06;5102932;28;20032;-66
2022/11/15 01:09:38;;;;;;;31.15;22.35;;;;;;;6.57;100.00;100854.72;5101631;28;20110;-66
2022/11/15 01:12:04;;;;;;;31.17;22.50;;;;;;;6.54;100.00;100849.59;5098364;28;20036;-65
2022/11/15 01:14:29;;;;;;;28.63;20.55;;;;;;;6.58;100.00;100859.13;5109127;28;20019;-66
2022/11/15 01:16:55;;;;;;;26.67;20.20;;;;;;;6.54;100.00;100847.78;5106538;28;20020;-67
2022/11/15 01:19:20;;;;;;;29.70;21.02;;;;;;;6.53;100.00;100840.75;5092517;28;20034;-65
2022/11/15 01:21:49;;;;;;;30.45;22.08;;;;;;;6.53;100.00;100842.56;5101936;28;20150;-65
2022/11/15 01:24:15;;;;;;;26.20;19.33;;;;;;;6.52;100.00;100844.34;5094114;28;20081;-66
2022/11/15 01:26:41;;;;;;;29.20;20.27;;;;;;;6.41;100.00;100825.53;5104030;28;20136;-66
2022/11/15 01:29:06;;;;;;;26.35;20.15;;;;;;;6.10;100.00;100777.78;5102702;28;20023;-67
2022/11/15 01:31:32;;;;;;;25.48;19.00;;;;;;;6.49;100.00;100839.22;5100124;28;20031;-67
2022/11/15 01:33:57;;;;;;;28.35;20.23;;;;;;;6.54;100.00;100850.47;5103275;28;20024;-66
2022/11/15 01:36:23;;;;;;;25.60;19.10;;;;;;;6.47;100.00;100830.47;5102123;28;20028;-66
2022/11/15 01:38:55;;;;;;;26.05;18.30;;;;;;;6.55;100.00;100838.00;5100910;28;20545;-66
2022/11/15 01:41:27;;;;;;;26.60;19.88;;;;;;;6.54;100.00;100839.78;5099052;28;20035;-67
2022/11/15 01:44:14;;;;;;;24.15;18.45;;;;;;;6.53;100.00;100840.75;5102893;28;20486;-65
2022/11/15 01:46:48;;;;;;;23.70;18.40;;;;;;;6.57;100.00;100841.41;5094333;28;20056;-67
2022/11/15 01:49:20;;;;;;;26.13;18.13;;;;;;;6.58;100.00;100841.31;5102584;28;20498;-66
2022/11/15 01:51:46;;;;;;;24.10;18.10;;;;;;;6.58;100.00;100838.66;5100414;28;20034;-72
2022/11/15 01:54:18;;;;;;;23.20;17.98;;;;;;;6.62;100.00;100845.47;5102481;28;20031;-72
2022/11/15 01:56:53;;;;;;;22.20;17.50;;;;;;;6.60;100.00;100843.88;5105379;27;20074;-73
2022/11/15 01:59:19;;;;;;;;;;;;;;;6.57;100.00;100836.94;5102680;28;20107;-73
2022/11/15 02:01:45;;;;;;;22.20;16.88;;;;;;;6.55;100.00;100828.19;5104679;28;20328;-73
2022/11/15 02:04:16;;;;;;;21.65;16.10;;;;;;;6.61;100.00;100833.13;5095373;28;20568;-72
2022/11/15 02:06:43;;;;;;;23.23;17.15;;;;;;;6.48;100.00;100805.53;5102553;28;20475;-73
2022/11/15 02:09:09;;;;;;;21.80;17.27;;;;;;;6.61;100.00;100826.97;5102708;28;20023;-73
2022/11/15 02:11:34;;;;;;;22.98;17.88;;;;;;;6.53;100.00;100807.91;5108859;28;20526;-73
2022/11/15 02:14:03;;;;;;;23.90;17.60;;;;;;;6.62;100.00;100826.00;5104087;28;20063;-73
2022/11/15 02:17:06;;;;;;;25.13;18.65;;;;;;;6.61;100.00;100827.78;5094515;28;20483;-73
2022/11/15 02:19:31;;;;;;;22.63;17.20;;;;;;;6.61;100.00;100811.81;5098255;28;20374;-72
2022/11/15 02:22:34;;;;;;;22.10;17.38;;;;;;;6.60;100.00;100810.09;5097062;28;20034;-72
2022/11/15 02:25:31;;;;;;;23.65;17.20;;;;;;;6.62;100.00;100813.50;5108027;28;20032;-72
2022/11/15 02:28:26;;;;;;;23.02;17.35;;;;;;;6.61;100.00;100817.13;5081042;28;20100;-72
2022/11/15 02:31:10;;;;;;;21.65;17.52;;;;;;;6.62;100.00;100808.19;5104989;28;20067;-73
2022/11/15 02:33:50;;;;;;;22.43;17.37;;;;;;;6.61;100.00;100806.47;5106013;28;20060;-73
2022/11/15 02:36:43;;;;;;;21.20;16.23;;;;;;;6.61;100.00;100805.63;5096727;27;20098;-72
2022/11/15 02:39:38;;;;;;;23.13;17.50;;;;;;;6.62;100.00;100808.19;5103688;27;20066;-73
2022/11/15 02:45:03;;;;;;;23.20;17.37;;;;;;;6.58;100.00;100814.66;5097486;27;20042;-73
2022/11/15 02:47:31;;;;;;;21.63;16.70;;;;;;;6.61;100.00;100818.97;5102441;28;20575;-73
2022/11/15 02:50:08;;;;;;;22.50;17.30;;;;;;;6.58;100.00;100813.81;5094972;28;20038;-74
2022/11/15 02:52:33;;;;;;;23.23;17.25;;;;;;;6.48;100.00;100808.22;5104284;28;20099;-73
2022/11/15 02:55:00;;;;;;;21.75;16.33;;;;;;;6.56;100.00;100818.38;5097119;28;20107;-73
2022/11/15 02:57:36;;;;;;;20.27;15.80;;;;;;;6.54;100.00;100828.28;5096737;28;20024;-72
2022/11/15 03:00:12;;;;;;;23.67;17.15;;;;;;;6.55;100.00;100824.69;5099903;28;20035;-73
2022/11/15 03:02:56;;;;;;;20.77;16.58;;;;;;;6.50;100.00;100813.44;5096634;28;20496;-72
2022/11/15 03:05:41;;;;;;;22.58;16.33;;;;;;;6.50;100.00;100808.13;5104104;28;20032;-73
2022/11/15 03:08:12;;;;;;;21.75;16.48;;;;;;;6.51;100.00;100802.69;5096308;28;20070;-72
2022/11/15 03:10:52;;;;;;;20.80;16.15;;;;;;;6.51;100.00;100809.81;5097433;28;20089;-73
2022/11/15 03:13:45;;;;;;;22.63;17.48;;;;;;;6.51;100.00;100805.34;5099281;28;20039;-72
2022/11/15 03:16:10;;;;;;;24.92;17.83;;;;;;;6.50;100.00;100795.66;5100356;28;20414;-73
2022/11/15 03:18:41;;;;;;;21.70;16.38;;;;;;;6.51;100.00;100800.03;5098986;28;20114;-74
2022/11/15 03:21:09;;;;;;;24.70;17.35;;;;;;;6.43;100.00;100781.00;5096223;28;20012;-73
2022/11/15 03:23:37;;;;;;;24.45;18.42;;;;;;;6.49;100.00;100799.25;5093769;28;20073;-67
2022/11/15 03:26:06;;;;;;;24.05;17.58;;;;;;;6.50;100.00;100802.78;5099687;28;20035;-66
2022/11/15 03:28:42;;;;;;;25.52;17.45;;;;;;;6.52;100.00;100793.72;5106108;28;20019;-66
2022/11/15 03:33:57;;;;;;;26.10;18.38;;;;;;;6.47;100.00;100776.34;5097466;28;20046;-65
2022/11/15 03:36:24;;;;;;;29.20;19.58;;;;;;;6.40;100.00;100767.88;5099055;28;20474;-66
2022/11/15 03:38:56;;;;;;;30.15;20.70;;;;;;;6.50;100.00;100771.69;5096761;28;20028;-66
2022/11/15 03:41:36;;;;;;;31.10;20.08;;;;;;;6.53;100.00;100778.59;5093647;28;20028;-67
2022/11/15 03:44:14;;;;;;;29.27;20.20;;;;;;;6.55;100.00;100787.38;5091346;28;20043;-67
2022/11/15 03:46:47;;;;;;;29.27;20.15;;;;;;;6.49;100.00;100767.28;5095099;28;20716;-73
2022/11/15 03:49:31;;;;;;;30.65;21.02;;;;;;;6.52;100.00;100775.06;5097178;28;20470;-67
2022/11/15 03:51:58;;;;;;;29.35;20.58;;;;;;;6.47;100.00;100766.53;5097631;28;20035;-66
2022/11/15 03:54:24;;;;;;;28.88;20.10;;;;;;;6.49;100.00;100767.28;5101234;28;20040;-67
2022/11/15 03:56:49;;;;;;;30.70;21.40;;;;;;;6.48;100.00;100770.06;5098543;28;20024;-67
2022/11/15 03:59:15;;;;;;;31.15;21.42;;;;;;;6.47;100.00;100760.34;5094773;28;20113;-67
2022/11/15 04:01:40;;;;;;;33.45;22.77;;;;;;;6.48;100.00;100749.59;5094718;28;20028;-67
2022/11/15 04:04:06;;;;;;;32.17;22.13;;;;;;;6.48;100.00;100754.91;5095385;28;20024;-66
2022/11/15 04:06:31;;;;;;;35.22;23.88;;;;;;;6.47;100.00;100761.22;5092555;28;20387;-66
2022/11/15 04:08:57;;;;;;;36.08;24.38;;;;;;;6.48;100.00;100751.41;5091898;28;20028;-66
2022/11/15 04:11:22;;;;;;;34.92;22.98;;;;;;;6.47;100.00;100753.22;5094602;28;20479;-66
2022/11/15 04:13:48;;;;;;;34.97;25.00;;;;;;;6.48;100.00;100746.94;5092550;28;20043;-66
2022/11/15 04:16:13;;;;;;;35.67;24.55;;;;;;;6.40;100.00;100732.38;5099646;28;20032;-67
2022/11/15 04:18:38;;;;;;;35.83;24.13;;;;;;;6.39;100.00;100723.53;5098622;27;20023;-67
2022/11/15 04:26:32;;;;;;;34.83;23.25;;;;;;;6.46;100.00;100746.19;5092200;28;20044;-65
2022/11/15 04:31:42;;;;;;;;;;;;;;;6.50;100.00;100731.72;5096025;28;20451;-66
2022/11/15 04:34:07;;;;;;;35.58;23.85;;;;;;;6.50;100.00;100726.38;5089358;28;19936;-67
2022/11/15 04:39:17;;;;;;;33.45;21.88;;;;;;;6.47;100.00;100731.03;5097567;28;20096;-67
2022/11/15 04:41:42;;;;;;;37.47;24.55;;;;;;;6.44;100.00;100709.91;5099098;28;20039;-73
2022/11/15 04:44:07;;;;;;;34.75;22.85;;;;;;;6.44;100.00;100713.44;5097380;28;20031;-72
2022/11/15 04:46:33;;;;;;;35.15;23.67;;;;;;;6.38;100.00;100704.97;5099089;28;20055;-72
2022/11/15 04:48:58;;;;;;;33.08;22.05;;;;;;;6.42;100.00;100717.19;5095928;28;20039;-72
2022/11/15 04:51:24;;;;;;;33.28;22.33;;;;;;;6.33;100.00;100699.97;5095188;28;20467;-73
2022/11/15 04:53:49;;;;;;;37.67;24.67;;;;;;;6.39;100.00;100710.22;5090527;28;20028;-70
2022/11/15 04:56:15;;;;;;;33.90;22.65;;;;;;;6.36;100.00;100691.75;5095938;28;20023;-67
2022/11/15 04:58:40;;;;;;;35.00;22.50;;;;;;;6.29;100.00;100687.78;5095402;28;20051;-67
2022/11/15 05:01:11;;;;;;;35.58;23.75;;;;;;;6.32;100.00;100700.91;5100152;28;20097;-67
2022/11/15 05:06:21;;;;;;;;;;;;;;;6.38;100.00;100707.66;5095058;28;20051;-67
2022/11/15 05:08:47;;;;;;;35.28;22.42;;;;;;;6.39;100.00;100688.06;5094088;28;19915;-73
2022/11/15 05:11:12;;;;;;;36.03;23.73;;;;;;;6.41;100.00;100704.78;5101333;28;20038;-73
2022/11/15 05:13:38;;;;;;;34.95;24.73;;;;;;;6.40;100.00;100703.09;5094228;28;20028;-73
2022/11/15 05:16:03;;;;;;;40.53;24.38;;;;;;;6.40;100.00;100692.44;5097095;28;20055;-73
2022/11/15 05:18:29;;;;;;;35.42;24.35;;;;;;;6.41;100.00;100681.69;5102249;28;20069;-73
2022/11/15 05:20:54;;;;;;;37.03;24.50;;;;;;;6.42;100.00;100685.22;5094198;28;20109;-73
2022/11/15 05:23:20;;;;;;;36.45;25.63;;;;;;;6.44;100.00;100696.59;5097384;28;20475;-72
2022/11/15 05:25:45;;;;;;;36.53;24.95;;;;;;;6.40;100.00;100690.63;5100722;28;20095;-65
2022/11/15 05:28:10;;;;;;;37.40;25.40;;;;;;;6.40;100.00;100701.28;5097752;28;20058;-65
2022/11/15 05:30:36;;;;;;;40.20;25.77;;;;;;;6.44;100.00;100704.59;5094202;28;20024;-66
2022/11/15 05:33:01;;;;;;;44.63;26.75;;;;;;;6.46;100.00;100692.03;5099073;28;20025;-65
2022/11/15 05:35:34;;;;;;;39.50;25.27;;;;;;;6.47;100.00;100705.25;5101262;27;20089;-66
2022/11/15 05:37:59;;;;;;;37.92;25.08;;;;;;;6.38;100.00;100702.31;5100569;27;20460;-66
2022/11/15 05:40:26;;;;;;;41.00;27.88;;;;;;;6.46;100.00;100705.34;5101221;27;20022;-71
2022/11/15 05:42:52;;;;;;;43.85;27.60;;;;;;;6.44;100.00;100716.13;5103359;28;20114;-72
2022/11/15 05:45:17;;;;;;;39.60;25.45;;;;;;;6.43;100.00;100703.75;5101078;28;20427;-73
2022/11/15 05:47:44;;;;;;;39.30;26.35;;;;;;;6.48;100.00;100717.63;5104519;28;20055;-72
2022/11/15 05:50:15;;;;;;;41.40;26.67;;;;;;;6.45;100.00;100716.97;5106722;28;20089;-72
2022/11/15 05:52:41;;;;;;;46.75;27.95;;;;;;;6.48;100.00;100722.94;5101533;28;20043;-72
2022/11/15 05:55:08;;;;;;;42.22;28.65;;;;;;;6.45;100.00;100720.47;5099765;28;20024;-73
2022/11/15 05:57:33;;;;;;;47.50;28.95;;;;;;;6.38;100.00;100710.31;5098634;28;20047;-73
2022/11/15 05:59:59;;;;;;;46.55;28.90;;;;;;;6.47;100.00;100726.56;5100617;27;20387;-72
2022/11/15 06:02:25;;;;;;;44.28;28.08;;;;;;;6.48;100.00;100730.09;5102127;28;20387;-72
2022/11/15 06:04:50;;;;;;;43.17;27.85;;;;;;;6.45;100.00;100739.13;5093815;28;20595;-73
2022/11/15 06:07:15;;;;;;;48.85;29.05;;;;;;;6.42;100.00;100736.66;5094804;27;20036;-73
2022/11/15 06:09:41;;;;;;;47.13;28.95;;;;;;;6.40;100.00;100730.59;5105107;27;20031;-72
2022/11/15 06:12:06;;;;;;;46.25;28.40;;;;;;;6.41;100.00;100736.75;5094157;28;20055;-73
2022/11/15 06:14:32;;;;;;;46.47;29.48;;;;;;;6.42;100.00;100738.50;5100459;28;20526;-73
2022/11/15 06:16:57;;;;;;;45.20;28.42;;;;;;;6.52;100.00;100748.44;5103237;28;20028;-66
2022/11/15 06:19:23;;;;;;;46.40;28.65;;;;;;;6.45;100.00;100736.47;5098701;28;20076;-66
2022/11/15 06:21:48;;;;;;;44.35;29.23;;;;;;;6.55;100.00;100748.25;5104751;28;20019;-66
2022/11/15 06:24:13;;;;;;;47.58;29.33;;;;;;;6.57;100.00;100743.69;5105315;28;20115;-73
2022/11/15 06:26:39;;;;;;;49.97;29.33;;;;;;;6.61;100.00;100742.50;5105346;27;20555;-73
2022/11/15 06:29:05;;;;;;;48.40;29.90;;;;;;;6.60;100.00;100722.16;5097585;28;20081;-72
2022/11/15 06:31:30;;;;;;;51.45;30.15;;;;;;;6.61;100.00;100736.34;5097515;27;20063;-73
2022/11/15 06:33:56;;;;;;;46.15;28.05;;;;;;;6.64;100.00;100722.78;5103754;28;20059;-73
2022/11/15 06:36:21;;;;;;;48.05;29.50;;;;;;;6.65;100.00;100730.69;5100392;28;20035;-73
2022/11/15 06:38:47;;;;;;;51.45;29.80;;;;;;;6.64;100.00;100728.13;5091737;28;20058;-73
2022/11/15 06:41:13;;;;;;;44.90;28.77;;;;;;;6.63;100.00;100723.75;5107220;28;20019;-73
2022/11/15 06:43:39;;;;;;;51.40;31.17;;;;;;;6.59;100.00;100712.47;5101173;28;20027;-67
2022/11/15 06:46:06;;;;;;;51.40;29.77;;;;;;;6.69;100.00;100726.03;5100613;27;20031;-67
2022/11/15 06:48:32;;;;;;;54.40;30.38;;;;;;;6.67;100.00;100717.25;5093617;28;20044;-67
2022/11/15 06:50:59;;;;;;;52.38;31.33;;;;;;;6.64;100.00;100699.69;5093688;27;20483;-66
2022/11/15 06:53:26;;;;;;;55.75;29.73;;;;;;;6.71;100.00;100716.13;5089469;27;20043;-67
2022/11/15 06:55:52;;;;;;;53.42;30.75;;;;;;;6.64;100.00;100705.00;5092513;28;20034;-67
2022/11/15 06:58:17;;;;;;;59.92;34.33;;;;;;;6.75;100.00;100714.97;5091214;28;20099;-66
2022/11/15 07:00:43;;;;;;;57.00;31.83;;;;;;;6.80;100.00;100707.50;5101202;27;20054;-73
2022/11/15 07:03:09;;;;;;;55.85;30.75;;;;;;;6.81;100.00;100710.06;5095209;28;20020;-73
2022/11/15 07:05:35;;;;;;;54.38;31.98;;;;;;;6.85;100.00;100714.28;5093744;28;20073;-73
2022/11/15 07:08:01;;;;;;;52.60;31.50;;;;;;;6.87;100.00;100708.84;5100413;28;20032;-73
2022/11/15 07:10:28;;;;;;;54.20;31.52;;;;;;;6.80;100.00;100703.03;5095169;28;20509;-73
2022/11/15 07:12:54;;;;;;;53.63;32.22;;;;;;;6.91;100.00;100716.50;5095573;28;20027;-66
2022/11/15 07:15:22;;;;;;;52.90;30.77;;;;;;;6.92;100.00;100712.03;5096131;28;20253;-67
2022/11/15 07:17:48;;;;;;;62.17;32.58;;;;;;;6.90;100.00;100701.47;5096916;28;20024;-66
2022/11/15 07:20:15;;;;;;;54.63;31.27;;;;;;;6.98;100.00;100708.97;5104557;27;20070;-66
2022/11/15 07:22:40;;;;;;;56.60;32.10;;;;;;;6.95;100.00;100690.50;5096829;27;20032;-66
2022/11/15 07:25:07;;;;;;;59.47;32.28;;;;;;;6.98;100.00;100703.63;5096990;28;20030;-66
2022/11/15 07:27:32;;;;;;;52.92;30.98;;;;;;;7.03;100.00;100708.66;5097484;28;20460;-66
2022/11/15 07:29:58;;;;;;;50.22;30.63;;;;;;;6.98;100.00;100704.50;5090361;28;20032;-67
2022/11/15 07:32:23;;;;;;;58.00;33.05;;;;;;;6.96;100.00;100693.06;5098078;28;20081;-67
2022/11/15 07:34:49;;;;;;;52.50;30.65;;;;;;;7.03;100.00;100702.38;5101978;27;20024;-67
2022/11/15 07:37:14;;;;;;;50.38;30.83;;;;;;;7.00;100.00;100685.72;5096229;27;20466;-68
2022/11/15 07:39:40;;;;;;;51.22;31.55;;;;;;;7.03;100.00;100691.69;5099957;27;20093;-67
2022/11/15 07:44:49;;;;;;;50.83;32.03;;;;;;;7.11;100.00;100690.31;5097175;28;20025;-67
2022/11/15 07:47:15;;;;;;;52.13;31.52;;;;;;;7.18;100.00;100688.94;5104871;27;20496;-66
2022/11/15 07:49:40;;;;;;;54.13;31.45;;;;;;;7.04;100.00;100655.22;5103166;27;20015;-67
2022/11/15 07:52:06;;;;;;;52.75;31.02;;;;;;;7.18;100.00;100678.25;5096924;27;20028;-66
2022/11/15 07:54:32;;;;;;;51.55;32.45;;;;;;;7.27;100.00;100683.84;5097419;27;20410;-66
2022/11/15 07:56:58;;;;;;;49.10;31.98;;;;;;;7.32;100.00;100691.53;5102941;28;20046;-73
2022/11/15 07:59:23;;;;;;;47.05;29.50;;;;;;;7.34;100.00;100684.25;5101937;27;20055;-74
2022/11/15 08:01:49;;;;;;;47.80;29.33;;;;;;;7.34;100.00;100679.78;5100367;28;20034;-74
2022/11/15 08:04:14;;;;;;;42.67;29.20;;;;;;;7.38;100.00;100683.13;5097507;28;20024;-74
2022/11/15 08:06:40;;;;;;;47.35;31.30;;;;;;;7.37;100.00;100668.91;5095653;28;20027;-74
2022/11/15 08:09:05;;;;;;;45.53;30.90;;;;;;;7.41;100.00;100661.56;5102111;28;20046;-74
2022/11/15 08:11:30;;;;;;;45.78;30.58;;;;;;;7.42;100.00;100665.94;5103226;27;20077;-74
2022/11/15 08:13:56;;;;;;;46.30;31.23;;;;;;;7.46;100.00;100667.41;5099554;27;20023;-74
2022/11/15 08:16:21;;;;;;;45.28;30.48;;;;;;;7.46;100.00;100662.94;5097103;28;20059;-73
2022/11/15 08:18:47;;;;;;;43.88;29.52;;;;;;;7.54;100.00;100665.09;5086899;28;20387;-73
2022/11/15 08:21:17;;;;;;;49.80;31.00;;;;;;;7.57;100.00;100668.38;5097810;28;20490;-74
2022/11/15 08:23:43;;;;;;;46.08;29.20;;;;;;;7.56;100.00;100652.47;5095541;28;21559;-74
2022/11/15 08:26:08;;;;;;;43.55;28.25;;;;;;;7.64;100.00;100661.63;5098145;28;20106;-74
2022/11/15 08:28:34;;;;;;;42.63;28.90;;;;;;;7.67;100.00;100669.44;5102429;28;20027;-73
2022/11/15 08:31:00;;;;;;;40.80;27.55;;;;;;;7.65;100.00;100651.81;5105520;28;20035;-73
2022/11/15 08:33:25;;;;;;;44.17;29.38;;;;;;;7.76;100.00;100659.91;5100895;28;20141;-74
2022/11/15 08:35:51;;;;;;;37.42;26.52;;;;;;;7.71;100.00;100651.41;5095074;28;20063;-73
2022/11/15 08:38:16;;;;;;;40.10;26.83;;;;;;;7.79;100.00;100662.38;5095067;28;20103;-73
2022/11/15 08:40:41;;;;;;;42.55;28.63;;;;;;;7.85;100.00;100653.94;5095703;28;20019;-73
2022/11/15 08:43:07;;;;;;;41.65;27.27;;;;;;;7.85;100.00;100659.28;5096261;28;20031;-73
2022/11/15 08:45:35;;;;;;;38.17;26.75;;;;;;;7.90;100.00;100649.97;5100411;28;20479;-73
2022/11/15 08:48:03;;;;;;;41.28;27.35;;;;;;;7.89;100.00;100648.28;5102935;28;20723;-73
2022/11/15 08:50:29;;;;;;;35.88;26.20;;;;;;;7.89;100.00;100653.59;5096079;28;20709;-73
2022/11/15 08:52:54;;;;;;;37.28;26.23;;;;;;;7.88;100.00;100649.25;5095904;28;20042;-73
2022/11/15 08:55:19;;;;;;;42.80;26.42;;;;;;;7.95;100.00;100658.50;5093574;28;20348;-73
2022/11/15 08:57:45;;;;;;;41.13;27.05;;;;;;;7.94;100.00;100647.94;5098211;28;20020;-73
2022/11/15 09:00:12;;;;;;;44.05;28.42;;;;;;;7.96;100.00;100657.53;5095276;28;20070;-73
2022/11/15 09:02:38;;;;;;;38.85;26.15;;;;;;;7.97;100.00;100661.91;5094130;28;20028;-73
2022/11/15 09:05:05;;;;;;;41.25;28.42;;;;;;;7.98;100.00;100655.63;5093862;28;20118;-72
2022/11/15 09:07:31;;;;;;;40.85;27.35;;;;;;;8.00;100.00;100650.19;5101184;28;20020;-73
2022/11/15 09:09:57;;;;;;;40.55;27.67;;;;;;;8.03;100.00;100657.97;5095378;28;20024;-72
2022/11/15 09:12:23;;;;;;;40.22;27.83;;;;;;;8.04;100.00;100646.31;5098473;28;20035;-73
2022/11/15 09:14:48;;;;;;;36.95;26.13;;;;;;;8.02;100.00;100645.56;5106381;28;20145;-74
2022/11/15 09:17:13;;;;;;;42.40;29.00;;;;;;;8.10;100.00;100646.72;5107996;28;20299;-74
2022/11/15 09:19:39;;;;;;;40.63;28.20;;;;;;;8.11;100.00;100635.09;5096832;28;20027;-74
2022/11/15 09:22:08;;;;;;;44.78;27.88;;;;;;;8.18;100.00;100641.69;5096543;28;20077;-74
2022/11/15 09:24:34;;;;;;;44.65;27.85;;;;;;;8.17;100.00;100645.31;5096077;28;20031;-73
2022/11/15 09:27:00;;;;;;;40.42;27.38;;;;;;;8.15;100.00;100635.69;5102930;28;20068;-73
2022/11/15 09:29:25;;;;;;;42.95;28.00;;;;;;;8.14;100.00;100629.53;5101587;28;20020;-73
2022/11/15 09:31:54;;;;;;;39.70;27.00;;;;;;;8.16;100.00;100632.91;5100568;28;20479;-72
2022/11/15 09:34:20;;;;;;;40.80;28.45;;;;;;;8.15;100.00;100625.88;5094695;28;20110;-74
2022/11/15 09:36:46;;;;;;;43.28;28.50;;;;;;;8.14;100.00;100612.63;5101054;27;20024;-74
2022/11/15 09:39:12;;;;;;;42.30;29.98;;;;;;;8.08;100.00;100600.56;5093633;28;20046;-73
2022/11/15 09:42:02;;;;;;;41.95;29.55;;;;;;;8.19;100.00;100605.13;5099447;27;20020;-73
2022/11/15 09:44:38;;;;;;;42.40;29.50;;;;;;;8.23;100.00;100604.84;5098492;28;20027;-74
2022/11/15 09:47:28;;;;;;;40.78;29.45;;;;;;;8.22;100.00;100597.78;5100883;28;20058;-73
2022/11/15 09:49:58;;;;;;;49.15;31.63;;;;;;;8.21;100.00;100600.50;5105173;28;20084;-74
2022/11/15 09:52:24;;;;;;;49.97;32.13;;;;;;;8.23;100.00;100599.50;5103186;27;20036;-74
2022/11/15 09:54:51;;;;;;;47.72;32.95;;;;;;;8.22;100.00;100588.91;5096429;27;20111;-74
2022/11/15 09:57:41;;;;;;;51.28;32.80;;;;;;;8.18;100.00;100582.03;5098101;28;20546;-67
2022/11/15 10:00:13;;;;;;;46.30;32.33;;;;;;;8.19;100.00;100570.41;5098539;28;20020;-74
2022/11/15 10:02:54;;;;;;;52.22;32.97;;;;;;;8.13;100.00;100561.00;5098809;28;20112;-74
2022/11/15 10:05:22;;;;;;;49.70;31.85;;;;;;;8.25;100.00;100569.97;5095758;28;20463;-74
2022/11/15 10:08:23;;;;;;;48.40;31.67;;;;;;;8.21;100.00;100563.13;5106257;28;20036;-72
2022/11/15 10:10:54;;;;;;;50.80;33.67;;;;;;;8.13;100.00;100538.81;5104353;28;20062;-66
2022/11/15 10:13:24;;;;;;;45.80;31.15;;;;;;;8.26;100.00;100566.34;5094580;28;20016;-67
2022/11/15 10:15:51;;;;;;;51.72;32.33;;;;;;;8.29;100.00;100574.97;5097828;28;20032;-65
2022/11/15 10:18:28;;;;;;;46.03;31.42;;;;;;;8.34;100.00;100572.81;5098624;28;20122;-67
2022/11/15 10:20:59;;;;;;;49.65;32.45;;;;;;;8.38;100.00;100576.97;5107139;28;20123;-66
2022/11/15 10:23:27;;;;;;;50.33;32.67;;;;;;;8.40;100.00;100563.47;5101407;28;20039;-66
2022/11/15 10:25:59;;;;;;;40.47;29.42;;;;;;;8.50;100.00;100577.84;5109059;28;20106;-66
2022/11/15 10:28:29;;;;;;;43.90;30.80;;;;;;;8.50;100.00;100568.03;5094021;28;20051;-66
2022/11/15 10:31:04;;;;;;;43.88;31.95;;;;;;;8.53;100.00;100569.63;5094280;28;20036;-65
2022/11/15 10:33:34;;;;;;;43.47;30.45;;;;;;;8.55;100.00;100565.00;5094155;28;20024;-66
2022/11/15 10:36:08;;;;;;;42.58;29.58;;;;;;;8.58;100.00;100562.94;5103838;28;20464;-66
2022/11/15 10:38:49;;;;;;;;;;;;;;;8.66;100.00;100557.88;5089244;28;20614;-67
2022/11/15 10:41:31;;;;;;;46.28;30.73;;;;;;;8.68;100.00;100550.56;5095343;28;19915;-67
2022/11/15 10:44:18;;;;;;;47.13;32.10;;;;;;;8.78;100.00;100548.06;5096993;28;20042;-74
2022/11/15 10:47:03;;;;;;;48.97;34.45;;;;;;;8.79;100.00;100549.75;5100189;28;20164;-74
2022/11/15 10:49:29;;;;;;;;;;;;;;;8.77;100.00;100547.22;5100838;28;20035;-74
2022/11/15 10:52:01;;;;;;;54.33;35.97;;;;;;;8.79;100.00;100547.09;5100092;28;19926;-74
2022/11/15 10:54:35;;;;;;;58.05;40.25;;;;;;;8.67;100.00;100530.16;5101195;28;20390;-67
2022/11/15 10:57:16;;;;;;;61.78;40.97;;;;;;;8.71;100.00;100538.81;5097357;28;20106;-67
2022/11/15 10:59:48;;;;;;;66.18;42.47;;;;;;;8.71;100.00;100528.97;5094495;28;20031;-67
2022/11/15 11:02:32;;;;;;;66.95;44.95;;;;;;;8.77;100.00;100536.50;5090866;28;20028;-67
2022/11/15 11:04:58;;;;;;;64.50;44.28;;;;;;;8.77;100.00;100530.34;5102266;28;20020;-67
2022/11/15 11:07:27;;;;;;;66.78;45.35;;;;;;;8.77;100.00;100527.66;5106632;28;20043;-67
2022/11/15 11:10:00;;;;;;;69.90;46.50;;;;;;;8.79;100.00;100525.69;5108498;28;20366;-67
2022/11/15 11:12:33;;;;;;;67.68;45.97;;;;;;;8.80;100.00;100516.69;5092975;28;20045;-68
2022/11/15 11:15:10;;;;;;;64.10;44.75;;;;;;;8.78;100.00;100498.09;5105423;28;20028;-67
2022/11/15 11:18:06;;;;;;;69.38;47.03;;;;;;;8.82;100.00;100496.03;5099291;28;20046;-66
2022/11/15 11:20:50;;;;;;;74.65;48.50;;;;;;;8.89;100.00;100498.13;5087228;28;20400;-66
2022/11/15 11:23:21;;;;;;;72.72;48.90;;;;;;;8.89;100.00;100494.59;5103089;28;20036;-74
2022/11/15 11:26:03;;;;;;;75.70;48.53;;;;;;;8.91;100.00;100490.00;5093711;28;20050;-74
2022/11/15 11:28:56;;;;;;;68.07;46.05;;;;;;;8.92;100.00;100492.53;5098272;28;20028;-74
2022/11/15 11:31:31;;;;;;;70.32;48.00;;;;;;;8.92;100.00;100497.91;5092211;28;20046;-74
2022/11/15 11:34:03;;;;;;;71.50;46.83;;;;;;;8.93;100.00;100486.22;5106162;28;20103;-66
2022/11/15 11:36:45;;;;;;;70.82;47.75;;;;;;;8.96;100.00;100496.69;5092833;28;20504;-66
2022/11/15 11:39:52;;;;;;;75.45;50.15;;;;;;;8.94;100.00;100490.56;5100388;28;20027;-67
2022/11/15 11:42:58;;;;;;;72.07;49.22;;;;;;;8.95;100.00;100488.78;5097292;28;20039;-67
2022/11/15 11:45:30;;;;;;;70.63;48.03;;;;;;;9.00;100.00;100489.28;5089437;28;20044;-75